createdAt,value
2022-09-06T00:01:51.433Z,24.62
2022-09-06T00:04:17.906Z,24.57
2022-09-06T00:06:44.552Z,24.55
2022-09-06T00:09:11.057Z,24.54
2022-09-06T00:11:38.044Z,24.54
2022-09-06T00:14:04.645Z,24.55
2022-09-06T00:16:31.104Z,24.55
2022-09-06T00:18:57.812Z,24.55
2022-09-06T00:21:25.406Z,24.54
2022-09-06T00:23:52.255Z,24.56
2022-09-06T00:26:19.120Z,24.58
2022-09-06T00:28:45.852Z,24.49
2022-09-06T00:31:20.880Z,24.44
2022-09-06T00:33:47.669Z,24.41
2022-09-06T00:36:14.470Z,24.40
2022-09-06T00:38:41.372Z,24.39
2022-09-06T00:41:09.252Z,24.37
2022-09-06T00:43:35.955Z,24.36
2022-09-06T00:46:02.782Z,24.39
2022-09-06T00:48:29.421Z,24.38
2022-09-06T00:50:57.084Z,24.37
2022-09-06T00:53:23.794Z,24.31
2022-09-06T00:55:50.403Z,24.33
2022-09-06T00:58:17.084Z,24.28
2022-09-06T01:00:44.912Z,24.33
2022-09-06T01:03:11.538Z,24.32
2022-09-06T01:05:42.441Z,24.24
2022-09-06T01:08:17.552Z,24.20
2022-09-06T01:11:08.575Z,24.18
2022-09-06T01:13:56.377Z,24.17
2022-09-06T01:16:30.037Z,24.19
2022-09-06T01:19:21.393Z,24.11
2022-09-06T01:22:08.176Z,24.09
2022-09-06T01:25:08.982Z,24.05
2022-09-06T01:28:21.298Z,24.03
2022-09-06T01:30:54.836Z,23.99
2022-09-06T01:33:32.677Z,23.91
2022-09-06T01:36:02.075Z,23.93
2022-09-06T01:38:28.912Z,23.99
2022-09-06T01:40:56.080Z,23.99
2022-09-06T01:43:25.893Z,24.09
2022-09-06T01:46:19.677Z,24.11
2022-09-06T01:48:46.257Z,24.06
2022-09-06T01:51:15.187Z,24.05
2022-09-06T01:54:00.161Z,24.04
2022-09-06T01:56:51.167Z,24.01
2022-09-06T01:59:46.831Z,23.97
2022-09-06T02:02:17.720Z,23.96
2022-09-06T02:04:49.998Z,23.95
2022-09-06T02:07:25.115Z,23.92
2022-09-06T02:09:54.858Z,23.87
2022-09-06T02:12:21.451Z,23.78
2022-09-06T02:14:58.935Z,23.76
2022-09-06T02:17:32.029Z,23.75
2022-09-06T02:20:06.318Z,23.70
2022-09-06T02:22:35.089Z,23.66
2022-09-06T02:25:01.737Z,23.66
2022-09-06T02:27:30.683Z,23.64
2022-09-06T02:29:57.686Z,23.66
2022-09-06T02:32:24.581Z,23.67
2022-09-06T02:34:55.657Z,23.70
2022-09-06T02:37:23.919Z,23.59
2022-09-06T02:39:50.565Z,23.51
2022-09-06T02:42:17.602Z,23.43
2022-09-06T02:44:44.242Z,23.46
2022-09-06T02:47:10.909Z,23.44
2022-09-06T02:49:37.667Z,23.39
2022-09-06T02:52:04.289Z,23.29
2022-09-06T02:54:31.240Z,23.26
2022-09-06T02:56:57.893Z,23.20
2022-09-06T02:59:24.340Z,23.19
2022-09-06T03:01:50.950Z,23.16
2022-09-06T03:04:17.568Z,23.18
2022-09-06T03:06:44.189Z,23.14
2022-09-06T03:09:10.642Z,23.09
2022-09-06T03:11:38.104Z,23.06
2022-09-06T03:14:04.876Z,23.06
2022-09-06T03:16:31.502Z,23.04
2022-09-06T03:18:57.993Z,23.02
2022-09-06T03:21:24.742Z,23.01
2022-09-06T03:23:51.138Z,22.96
2022-09-06T03:26:17.741Z,22.95
2022-09-06T03:28:44.329Z,23.00
2022-09-06T03:31:11.220Z,23.00
2022-09-06T03:33:37.914Z,23.02
2022-09-06T03:36:04.444Z,23.03
2022-09-06T03:38:31.079Z,23.04
2022-09-06T03:40:57.666Z,23.05
2022-09-06T03:43:24.866Z,23.11
2022-09-06T03:45:53.289Z,23.08
2022-09-06T03:48:22.419Z,23.02
2022-09-06T03:50:50.670Z,23.00
2022-09-06T03:53:17.616Z,22.98
2022-09-06T03:55:48.247Z,22.96
2022-09-06T03:58:15.277Z,22.95
2022-09-06T04:00:41.922Z,22.92
2022-09-06T04:03:08.939Z,22.94
2022-09-06T04:05:35.618Z,22.91
2022-09-06T04:08:02.483Z,22.94
2022-09-06T04:10:29.574Z,22.93
2022-09-06T04:12:56.265Z,22.87
2022-09-06T04:15:22.703Z,22.91
2022-09-06T04:17:49.364Z,22.90
2022-09-06T04:20:15.946Z,22.90
2022-09-06T04:22:42.716Z,22.90
2022-09-06T04:25:09.499Z,22.85
2022-09-06T04:27:36.130Z,22.81
2022-09-06T04:30:02.754Z,22.91
2022-09-06T04:32:29.382Z,22.95
2022-09-06T04:34:55.849Z,23.03
2022-09-06T04:37:22.679Z,23.09
2022-09-06T04:39:49.462Z,23.04
2022-09-06T04:42:16.009Z,22.97
2022-09-06T04:44:42.777Z,22.93
2022-09-06T04:47:14.817Z,22.99
2022-09-06T04:49:42.156Z,23.03
2022-09-06T04:52:08.791Z,23.11
2022-09-06T04:54:35.455Z,23.12
2022-09-06T04:57:02.089Z,23.16
2022-09-06T04:59:28.687Z,23.21
2022-09-06T05:01:55.201Z,23.32
2022-09-06T05:04:22.395Z,23.40
2022-09-06T05:06:49.362Z,23.46
2022-09-06T05:09:16.049Z,23.34
2022-09-06T05:11:42.519Z,23.77
2022-09-06T05:14:09.149Z,23.93
2022-09-06T05:16:35.642Z,23.86
2022-09-06T05:19:02.278Z,23.73
2022-09-06T05:21:28.708Z,23.78
2022-09-06T05:23:58.696Z,23.71
2022-09-06T05:26:25.631Z,23.62
2022-09-06T05:28:52.137Z,23.53
2022-09-06T05:31:31.473Z,23.56
2022-09-06T05:33:58.474Z,23.66
2022-09-06T05:36:26.200Z,23.66
2022-09-06T05:38:53.808Z,23.66
2022-09-06T05:41:23.400Z,23.78
2022-09-06T05:43:50.116Z,23.72
2022-09-06T05:46:17.083Z,23.66
2022-09-06T05:48:43.759Z,23.85
2022-09-06T05:51:15.228Z,24.32
2022-09-06T05:53:43.621Z,24.67
2022-09-06T05:56:14.932Z,24.47
2022-09-06T05:58:41.569Z,24.37
2022-09-06T06:01:08.033Z,24.50
2022-09-06T06:03:41.264Z,24.49
2022-09-06T06:06:08.094Z,24.81
2022-09-06T06:08:35.603Z,24.72
2022-09-06T06:11:02.486Z,24.76
2022-09-06T06:13:29.969Z,24.93
2022-09-06T06:15:56.720Z,25.39
2022-09-06T06:18:23.436Z,26.06
2022-09-06T06:20:50.657Z,26.63
2022-09-06T06:23:17.290Z,27.16
2022-09-06T06:25:43.927Z,27.65
2022-09-06T06:28:11.118Z,28.16
2022-09-06T06:30:37.759Z,28.13
2022-09-06T06:33:04.404Z,28.62
2022-09-06T06:35:31.030Z,29.14
2022-09-06T06:38:03.655Z,29.07
2022-09-06T06:40:31.020Z,29.56
2022-09-06T06:42:57.620Z,29.95
2022-09-06T06:45:24.264Z,30.38
2022-09-06T06:47:51.069Z,30.55
2022-09-06T06:50:17.699Z,30.80
2022-09-06T06:52:44.370Z,30.89
2022-09-06T06:55:10.953Z,31.03
2022-09-06T06:57:37.542Z,31.27
2022-09-06T07:00:04.992Z,31.53
2022-09-06T07:02:31.688Z,31.70
2022-09-06T07:04:58.356Z,31.90
2022-09-06T07:07:33.545Z,32.22
2022-09-06T07:12:48.864Z,32.38
2022-09-06T07:15:15.592Z,32.02
2022-09-06T07:17:42.459Z,32.50
2022-09-06T07:20:12.640Z,32.98
2022-09-06T07:22:39.732Z,33.17
2022-09-06T07:25:06.872Z,33.24
2022-09-06T07:27:49.543Z,33.45
2022-09-06T07:30:16.967Z,33.48
2022-09-06T07:32:43.664Z,33.45
2022-09-06T07:35:10.310Z,33.92
2022-09-06T07:37:36.966Z,34.27
2022-09-06T07:40:04.143Z,34.28
2022-09-06T07:42:36.424Z,34.17
2022-09-06T07:45:04.582Z,34.31
2022-09-06T07:53:09.714Z,34.93
2022-09-06T07:55:42.838Z,35.04
2022-09-06T07:58:09.413Z,35.21
2022-09-06T08:00:36.233Z,35.01
2022-09-06T08:03:02.974Z,35.07
2022-09-06T08:11:02.971Z,35.60
2022-09-06T08:13:29.806Z,35.26
2022-09-06T08:16:03.773Z,35.76
2022-09-06T08:18:30.441Z,35.36
2022-09-06T08:20:57.098Z,34.57
2022-09-06T08:23:23.796Z,34.18
2022-09-06T08:25:59.940Z,33.46
2022-09-06T08:28:28.851Z,33.11
2022-09-06T08:30:55.912Z,32.99
2022-09-06T08:33:25.516Z,33.24
2022-09-06T08:35:56.655Z,34.10
2022-09-06T08:38:23.283Z,33.98
2022-09-06T08:40:51.404Z,33.34
2022-09-06T08:43:20.171Z,32.99
2022-09-06T08:45:52.520Z,32.77
2022-09-06T08:48:20.977Z,33.00
2022-09-06T08:51:05.980Z,32.98
2022-09-06T08:53:32.633Z,33.22
2022-09-06T08:56:21.943Z,34.15
2022-09-06T08:59:27.310Z,34.40
2022-09-06T09:02:28.993Z,35.48
2022-09-06T09:05:00.627Z,35.34
2022-09-06T09:07:35.413Z,35.44
2022-09-06T09:10:03.747Z,35.08
2022-09-06T09:12:30.854Z,34.84
2022-09-06T09:15:05.205Z,35.15
2022-09-06T09:17:31.862Z,35.26
2022-09-06T09:19:58.528Z,34.81
2022-09-06T09:22:25.401Z,34.30
2022-09-06T09:24:52.809Z,33.65
2022-09-06T09:27:24.112Z,33.26
2022-09-06T09:32:44.685Z,33.68
2022-09-06T09:35:31.375Z,33.96
2022-09-06T09:38:13.147Z,33.57
2022-09-06T09:40:49.415Z,33.39
2022-09-06T09:43:19.435Z,33.78
2022-09-06T09:45:46.212Z,34.70
2022-09-06T09:48:17.197Z,35.35
2022-09-06T09:50:43.847Z,35.68
2022-09-06T09:53:11.804Z,36.18
2022-09-06T09:55:38.747Z,36.11
2022-09-06T09:58:05.428Z,36.38
2022-09-06T10:00:39.622Z,36.91
2022-09-06T10:03:14.129Z,37.03
2022-09-06T10:05:41.113Z,37.18
2022-09-06T10:08:11.035Z,37.26
2022-09-06T10:10:42.937Z,37.48
2022-09-06T10:13:21.380Z,37.42
2022-09-06T10:15:48.731Z,37.45
2022-09-06T10:18:35.371Z,36.93
2022-09-06T10:21:01.941Z,36.80
2022-09-06T10:26:33.386Z,37.48
2022-09-06T10:29:06.342Z,37.15
2022-09-06T10:31:32.926Z,37.29
2022-09-06T10:34:02.793Z,37.67
2022-09-06T10:36:37.530Z,37.96
2022-09-06T10:39:23.580Z,38.19
2022-09-06T10:41:58.648Z,37.90
2022-09-06T10:44:31.209Z,37.82
2022-09-06T10:47:16.506Z,37.42
2022-09-06T10:49:45.976Z,37.52
2022-09-06T10:52:37.639Z,37.58
2022-09-06T10:55:05.429Z,37.71
2022-09-06T11:00:37.899Z,37.20
2022-09-06T11:06:24.287Z,37.48
2022-09-06T11:09:25.757Z,37.88
2022-09-06T11:12:12.461Z,37.88
2022-09-06T11:14:38.972Z,37.84
2022-09-06T11:17:17.443Z,37.85
2022-09-06T11:19:52.394Z,37.97
2022-09-06T11:22:19.275Z,37.86
2022-09-06T11:24:56.856Z,37.88
2022-09-06T11:27:28.489Z,37.53
2022-09-06T11:29:56.674Z,37.67
2022-09-06T11:32:48.961Z,37.73
2022-09-06T11:35:32.070Z,37.68
2022-09-06T11:38:09.268Z,37.42
2022-09-06T11:40:38.669Z,37.32
2022-09-06T11:43:09.162Z,36.67
2022-09-06T11:45:46.133Z,36.58
2022-09-06T11:48:36.930Z,36.51
2022-09-06T11:51:12.487Z,36.56
2022-09-06T11:53:50.939Z,36.50
2022-09-06T11:56:42.532Z,36.96
2022-09-06T11:59:23.415Z,36.88
2022-09-06T12:01:56.271Z,37.11
2022-09-06T12:04:23.273Z,36.40
2022-09-06T12:07:12.106Z,36.31
2022-09-06T12:09:46.106Z,36.26
2022-09-06T12:12:16.895Z,35.33
2022-09-06T12:14:47.017Z,35.38
2022-09-06T12:17:13.566Z,35.26
2022-09-06T12:19:49.248Z,35.48
2022-09-06T12:22:27.773Z,35.61
2022-09-06T12:24:56.143Z,35.56
2022-09-06T12:27:35.432Z,35.22
2022-09-06T12:30:05.596Z,35.12
2022-09-06T12:32:47.126Z,34.93
2022-09-06T12:38:12.309Z,35.13
2022-09-06T12:40:46.093Z,35.49
2022-09-06T12:43:14.642Z,35.26
2022-09-06T12:45:48.951Z,35.48
2022-09-06T12:48:29.735Z,35.40
2022-09-06T12:51:07.242Z,34.81
2022-09-06T12:53:34.848Z,34.94
2022-09-06T12:56:09.325Z,34.27
2022-09-06T12:58:36.195Z,34.30
2022-09-06T13:01:07.735Z,34.62
2022-09-06T13:04:00.261Z,34.65
2022-09-06T13:06:27.451Z,34.70
2022-09-06T13:08:57.484Z,34.63
2022-09-06T13:11:34.454Z,34.45
2022-09-06T13:14:01.147Z,34.24
2022-09-06T13:16:30.549Z,34.45
2022-09-06T13:19:39.594Z,34.48
2022-09-06T13:22:07.627Z,34.23
2022-09-06T13:24:34.187Z,33.93
2022-09-06T13:27:01.256Z,33.59
2022-09-06T13:29:31.611Z,33.75
2022-09-06T13:31:59.587Z,33.50
2022-09-06T13:34:32.900Z,33.53
2022-09-06T13:37:05.411Z,33.52
2022-09-06T13:39:41.595Z,33.40
2022-09-06T13:42:09.748Z,33.20
2022-09-06T13:44:40.205Z,33.17
2022-09-06T13:47:07.005Z,33.15
2022-09-06T13:49:34.054Z,32.55
2022-09-06T13:52:02.508Z,32.42
2022-09-06T13:58:01.583Z,32.71
2022-09-06T14:00:28.173Z,32.23
2022-09-06T14:02:55.713Z,32.27
2022-09-06T14:05:22.564Z,32.41
2022-09-06T14:07:49.209Z,32.28
2022-09-06T14:10:15.849Z,32.28
2022-09-06T14:12:42.497Z,32.30
2022-09-06T14:15:09.982Z,32.15
2022-09-06T14:17:36.772Z,32.10
2022-09-06T14:20:04.248Z,32.07
2022-09-06T14:22:30.862Z,31.99
2022-09-06T14:24:57.666Z,31.95
2022-09-06T14:27:24.973Z,31.88
2022-09-06T14:29:51.587Z,31.82
2022-09-06T14:32:22.527Z,31.68
2022-09-06T14:34:49.660Z,31.69
2022-09-06T14:37:16.272Z,31.79
2022-09-06T14:39:43.540Z,31.77
2022-09-06T14:42:10.226Z,31.80
2022-09-06T14:44:37.074Z,31.76
2022-09-06T14:47:03.860Z,31.56
2022-09-06T14:49:31.995Z,31.61
2022-09-06T14:51:58.801Z,31.60
2022-09-06T14:54:29.112Z,31.60
2022-09-06T14:56:56.398Z,31.57
2022-09-06T14:59:23.142Z,31.57
2022-09-06T15:01:49.785Z,31.64
2022-09-06T15:04:16.565Z,31.62
2022-09-06T15:06:47.324Z,31.49
2022-09-06T15:09:17.486Z,31.54
2022-09-06T15:11:46.419Z,31.52
2022-09-06T15:14:26.356Z,31.46
2022-09-06T15:16:56.497Z,31.54
2022-09-06T15:19:24.635Z,31.55
2022-09-06T15:21:51.486Z,31.64
2022-09-06T15:24:18.229Z,31.58
2022-09-06T15:26:45.169Z,31.58
2022-09-06T15:29:12.040Z,31.52
2022-09-06T15:31:38.950Z,31.21
2022-09-06T15:34:06.182Z,30.74
2022-09-06T15:36:33.517Z,30.29
2022-09-06T15:39:03.623Z,30.20
2022-09-06T15:41:32.394Z,30.01
2022-09-06T15:44:00.763Z,29.94
2022-09-06T15:46:36.612Z,29.89
2022-09-06T15:49:04.181Z,29.75
2022-09-06T15:51:31.045Z,29.42
2022-09-06T15:53:58.535Z,29.43
2022-09-06T15:56:25.295Z,29.37
2022-09-06T15:58:51.914Z,29.35
2022-09-06T16:01:23.135Z,29.28
2022-09-06T16:03:54.500Z,29.17
2022-09-06T16:06:25.958Z,29.20
2022-09-06T16:09:02.942Z,29.12
2022-09-06T16:11:30.242Z,29.10
2022-09-06T16:13:57.013Z,29.15
2022-09-06T16:16:23.752Z,29.11
2022-09-06T16:18:51.977Z,29.10
2022-09-06T16:21:21.610Z,29.15
2022-09-06T16:23:55.466Z,29.20
2022-09-06T16:26:22.877Z,29.22
2022-09-06T16:28:50.459Z,29.26
2022-09-06T16:31:17.472Z,29.24
2022-09-06T16:33:45.567Z,29.30
2022-09-06T16:36:12.997Z,29.24
2022-09-06T16:38:39.752Z,29.18
2022-09-06T16:41:17.363Z,29.07
2022-09-06T16:43:44.643Z,29.04
2022-09-06T16:46:11.522Z,29.14
2022-09-06T16:48:40.567Z,29.02
2022-09-06T16:51:11.018Z,28.96
2022-09-06T16:53:39.373Z,28.98
2022-09-06T16:56:06.202Z,28.81
2022-09-06T16:58:32.942Z,28.85
2022-09-06T17:00:59.808Z,28.76
2022-09-06T17:03:26.681Z,28.72
2022-09-06T17:05:53.430Z,28.68
2022-09-06T17:08:20.195Z,28.58
2022-09-06T17:10:46.821Z,28.49
2022-09-06T17:13:13.544Z,28.49
2022-09-06T17:16:06.582Z,28.36
2022-09-06T17:18:33.256Z,28.35
2022-09-06T17:21:05.079Z,28.36
2022-09-06T17:23:32.115Z,28.16
2022-09-06T17:25:58.875Z,28.14
2022-09-06T17:28:26.397Z,28.14
2022-09-06T17:30:53.417Z,28.10
2022-09-06T17:33:20.989Z,28.05
2022-09-06T17:35:47.752Z,28.07
2022-09-06T17:38:14.417Z,27.97
2022-09-06T17:40:41.163Z,27.93
2022-09-06T17:43:08.024Z,27.91
2022-09-06T17:45:39.021Z,27.89
2022-09-06T17:48:05.759Z,27.82
2022-09-06T17:50:33.184Z,27.79
2022-09-06T17:53:00.224Z,27.73
2022-09-06T17:55:28.927Z,27.72
2022-09-06T17:57:56.411Z,27.68
2022-09-06T18:00:24.123Z,27.65
2022-09-06T18:02:50.999Z,27.60
2022-09-06T18:05:17.920Z,27.67
2022-09-06T18:07:45.373Z,27.64
2022-09-06T18:10:14.556Z,27.60
2022-09-06T18:12:42.337Z,27.59
2022-09-06T18:15:09.571Z,27.52
2022-09-06T18:17:36.429Z,27.45
2022-09-06T18:20:04.483Z,27.46
2022-09-06T18:22:31.358Z,27.40
2022-09-06T18:24:58.568Z,27.39
2022-09-06T18:27:28.415Z,27.43
2022-09-06T18:29:55.702Z,27.41
2022-09-06T18:39:30.682Z,27.33
2022-09-06T18:42:00.553Z,27.33
2022-09-06T18:44:33.074Z,27.33
2022-09-06T18:47:05.678Z,27.18
2022-09-06T18:49:33.710Z,27.08
2022-09-06T18:52:04.517Z,27.10
2022-09-06T18:54:31.618Z,27.07
2022-09-06T18:56:58.366Z,26.84
2022-09-06T18:59:25.001Z,26.89
2022-09-06T19:01:51.808Z,26.81
2022-09-06T19:04:19.846Z,26.74
2022-09-06T19:06:47.100Z,26.69
2022-09-06T19:09:15.319Z,26.73
2022-09-06T19:11:45.551Z,26.67
2022-09-06T19:14:13.884Z,26.68
2022-09-06T19:16:42.517Z,26.60
2022-09-06T19:19:09.894Z,26.58
2022-09-06T19:21:42.066Z,26.63
2022-09-06T19:24:10.176Z,26.56
2022-09-06T19:26:38.557Z,26.52
2022-09-06T19:29:08.895Z,26.50
2022-09-06T19:31:36.991Z,26.46
2022-09-06T19:34:04.205Z,26.45
2022-09-06T19:36:31.931Z,26.43
2022-09-06T19:39:04.791Z,26.40
2022-09-06T19:41:33.399Z,26.35
2022-09-06T19:44:00.265Z,26.38
2022-09-06T19:46:27.893Z,26.33
2022-09-06T19:48:56.248Z,26.28
2022-09-06T19:51:23.315Z,26.19
2022-09-06T19:53:55.111Z,26.19
2022-09-06T19:56:26.545Z,26.16
2022-09-06T19:58:58.943Z,26.18
2022-09-06T20:01:26.703Z,26.15
2022-09-06T20:03:53.529Z,26.11
2022-09-06T20:06:20.247Z,26.03
2022-09-06T20:08:50.422Z,25.99
2022-09-06T20:11:17.254Z,25.98
2022-09-06T20:13:44.461Z,25.93
2022-09-06T20:16:12.512Z,25.91
2022-09-06T20:18:39.431Z,25.85
2022-09-06T20:21:06.258Z,25.85
2022-09-06T20:23:34.258Z,25.81
2022-09-06T20:26:01.934Z,25.76
2022-09-06T20:28:28.784Z,25.78
2022-09-06T20:31:00.539Z,25.78
2022-09-06T20:33:27.335Z,25.79
2022-09-06T20:35:55.827Z,25.75
2022-09-06T20:38:23.062Z,25.69
2022-09-06T20:41:03.888Z,25.69
2022-09-06T20:43:33.707Z,25.72
2022-09-06T20:46:00.862Z,25.68
2022-09-06T20:48:27.536Z,25.63
2022-09-06T20:50:58.657Z,25.62
2022-09-06T20:53:25.454Z,25.58
2022-09-06T20:56:04.831Z,25.55
2022-09-06T20:58:31.734Z,25.55
2022-09-06T21:00:58.946Z,25.51
2022-09-06T21:03:26.229Z,25.45
2022-09-06T21:05:53.847Z,25.51
2022-09-06T21:08:20.934Z,25.53
2022-09-06T21:10:47.768Z,25.58
2022-09-06T21:13:14.456Z,25.54
2022-09-06T21:15:41.393Z,25.59
2022-09-06T21:18:08.837Z,25.62
2022-09-06T21:20:36.030Z,25.63
2022-09-06T21:23:02.825Z,25.56
2022-09-06T21:25:29.615Z,25.49
2022-09-06T21:27:56.463Z,25.43
2022-09-06T21:30:23.185Z,25.40
2022-09-06T21:32:53.356Z,25.43
2022-09-06T21:35:19.955Z,25.49
2022-09-06T21:37:46.473Z,25.51
2022-09-06T21:40:13.269Z,25.56
2022-09-06T21:42:40.018Z,25.61
2022-09-06T21:45:06.881Z,25.60
2022-09-06T21:47:33.549Z,25.60
2022-09-06T21:50:00.214Z,25.58
2022-09-06T21:52:26.900Z,25.54
2022-09-06T21:54:53.527Z,25.51
2022-09-06T21:57:20.002Z,25.54
2022-09-06T21:59:46.598Z,25.55
2022-09-06T22:02:14.363Z,25.51
2022-09-06T22:04:40.861Z,25.54
2022-09-06T22:07:07.508Z,25.49
2022-09-06T22:09:33.945Z,25.41
2022-09-06T22:12:00.605Z,25.37
2022-09-06T22:14:27.034Z,25.33
2022-09-06T22:16:53.851Z,25.28
2022-09-06T22:19:20.470Z,25.30
2022-09-06T22:21:47.145Z,25.27
2022-09-06T22:24:15.352Z,25.28
2022-09-06T22:26:42.307Z,25.32
2022-09-06T22:29:10.020Z,25.23
2022-09-06T22:31:36.835Z,25.20
2022-09-06T22:34:04.131Z,25.12
2022-09-06T22:36:31.056Z,25.12
2022-09-06T22:38:58.655Z,25.09
2022-09-06T22:41:25.952Z,25.05
2022-09-06T22:43:52.679Z,24.98
2022-09-06T22:46:19.327Z,24.97
2022-09-06T22:48:45.802Z,24.99
2022-09-06T22:51:12.433Z,25.00
2022-09-06T22:53:38.893Z,24.99
2022-09-06T22:56:05.586Z,25.00
2022-09-06T22:58:32.786Z,24.95
2022-09-06T23:01:06.013Z,24.92
2022-09-06T23:03:32.689Z,24.86
2022-09-06T23:06:00.769Z,24.82
2022-09-06T23:08:27.373Z,24.79
2022-09-06T23:10:53.792Z,24.71
2022-09-06T23:13:20.408Z,24.72
2022-09-06T23:15:47.751Z,24.69
2022-09-06T23:18:14.823Z,24.58
2022-09-06T23:20:41.759Z,24.55
2022-09-06T23:23:08.704Z,24.57
2022-09-06T23:25:39.036Z,24.53
2022-09-06T23:28:05.773Z,24.54
2022-09-06T23:30:32.420Z,24.48
2022-09-06T23:32:58.856Z,24.46
2022-09-06T23:35:25.505Z,24.43
2022-09-06T23:37:52.242Z,24.41
2022-09-06T23:40:18.997Z,24.39
2022-09-06T23:42:46.032Z,24.39
2022-09-06T23:45:12.678Z,24.40
2022-09-06T23:47:39.124Z,24.33
2022-09-06T23:50:06.779Z,24.31
2022-09-06T23:52:33.371Z,24.31
2022-09-06T23:54:59.809Z,24.30
2022-09-06T23:57:26.408Z,24.21
2022-09-06T23:59:52.838Z,24.26
